createdAt,value
2022-08-05T00:00:26.687Z,99953.38
2022-08-05T00:01:20.259Z,99962.81
2022-08-05T00:01:55.570Z,99960.44
2022-08-05T00:02:40.243Z,99963.19
2022-08-05T00:03:16.128Z,99951.06
2022-08-05T00:03:51.775Z,99957.00
2022-08-05T00:04:24.008Z,99948.47
2022-08-05T00:04:56.475Z,99956.34
2022-08-05T00:06:05.647Z,99957.63
2022-08-05T00:06:30.717Z,99956.34
2022-08-05T00:07:21.825Z,99960.22
2022-08-05T00:08:01.446Z,99953.16
2022-08-05T00:08:35.398Z,99959.56
2022-08-05T00:09:12.847Z,99955.34
2022-08-05T00:09:45.524Z,99958.06
2022-08-05T00:10:18.595Z,99956.94
2022-08-05T00:10:53.309Z,99959.69
2022-08-05T00:11:34.720Z,99956.94
2022-08-05T00:12:13.008Z,99950.22
2022-08-05T00:12:56.224Z,99954.09
2022-08-05T00:13:38.147Z,99950.41
2022-08-05T00:14:16.936Z,99950.75
2022-08-05T00:14:51.715Z,99951.06
2022-08-05T00:15:55.456Z,99949.13
2022-08-05T00:16:20.249Z,99954.81
2022-08-05T00:17:18.686Z,99957.44
2022-08-05T00:17:52.442Z,99957.81
2022-08-05T00:18:24.585Z,99954.72
2022-08-05T00:18:59.352Z,99955.50
2022-08-05T00:19:33.386Z,99949.22
2022-08-05T00:20:20.424Z,99953.00
2022-08-05T00:20:53.140Z,99953.78
2022-08-05T00:21:25.283Z,99949.13
2022-08-05T00:22:05.939Z,99954.91
2022-08-05T00:22:38.582Z,99957.66
2022-08-05T00:23:44.457Z,99950.59
2022-08-05T00:24:16.099Z,99953.56
2022-08-05T00:24:55.181Z,99953.56
2022-08-05T00:25:27.509Z,99954.69
2022-08-05T00:26:20.341Z,99960.47
2022-08-05T00:26:53.247Z,99953.50
2022-08-05T00:27:28.393Z,99950.91
2022-08-05T00:28:11.134Z,99947.69
2022-08-05T00:28:45.732Z,99957.19
2022-08-05T00:29:25.420Z,99946.25
2022-08-05T00:29:57.965Z,99952.03
2022-08-05T00:30:32.669Z,99948.50
2022-08-05T00:31:08.592Z,99944.63
2022-08-05T00:32:10.278Z,99949.63
2022-08-05T00:32:37.800Z,99951.44
2022-08-05T00:33:15.645Z,99951.13
2022-08-05T00:34:55.634Z,99946.66
2022-08-05T00:35:06.833Z,99945.38
2022-08-05T00:35:48.002Z,99948.13
2022-08-05T00:37:10.520Z,99948.47
2022-08-05T00:37:35.467Z,99946.88
2022-08-05T00:38:28.890Z,99944.13
2022-08-05T00:39:13.789Z,99940.25
2022-08-05T00:39:57.914Z,99940.25
2022-08-05T00:40:33.976Z,99942.19
2022-08-05T00:41:11.767Z,99937.16
2022-08-05T00:41:54.997Z,99937.66
2022-08-05T00:42:34.454Z,99936.84
2022-08-05T00:43:07.665Z,99932.97
2022-08-05T00:43:49.520Z,99941.63
2022-08-05T00:44:30.892Z,99937.31
2022-08-05T00:45:08.446Z,99947.09
2022-08-05T00:45:44.249Z,99936.97
2022-08-05T00:46:16.392Z,99942.91
2022-08-05T00:46:54.252Z,99942.56
2022-08-05T00:47:56.381Z,99931.16
2022-08-05T00:48:31.382Z,99931.50
2022-08-05T00:49:06.848Z,99931.16
2022-08-05T00:49:51.045Z,99928.88
2022-08-05T00:50:25.422Z,99932.78
2022-08-05T00:51:00.548Z,99926.94
2022-08-05T00:51:50.559Z,99925.69
2022-08-05T00:52:28.654Z,99924.09
2022-08-05T00:53:03.808Z,99924.09
2022-08-05T00:54:02.702Z,99930.69
2022-08-05T00:54:37.846Z,99926.69
2022-08-05T00:55:10.143Z,99936.53
2022-08-05T00:55:44.175Z,99930.69
2022-08-05T00:56:22.807Z,99933.91
2022-08-05T00:56:55.212Z,99928.75
2022-08-05T00:57:38.148Z,99928.44
2022-08-05T00:58:22.308Z,99926.38
2022-08-05T00:59:00.231Z,99926.38
2022-08-05T00:59:44.577Z,99937.44
2022-08-05T01:00:17.780Z,99931.84
2022-08-05T01:00:52.461Z,99937.31
2022-08-05T01:01:42.605Z,99934.22
2022-08-05T01:02:19.923Z,99933.66
2022-08-05T01:02:57.479Z,99936.41
2022-08-05T01:03:34.586Z,99938.78
2022-08-05T01:04:13.960Z,99934.91
2022-08-05T01:04:50.365Z,99936.41
2022-08-05T01:05:23.197Z,99940.38
2022-08-05T01:05:55.530Z,99941.19
2022-08-05T01:06:32.506Z,99936.97
2022-08-05T01:07:05.544Z,99934.22
2022-08-05T01:07:38.123Z,99936.63
2022-08-05T01:08:43.255Z,99929.13
2022-08-05T01:09:19.841Z,99920.75
2022-08-05T01:09:55.700Z,99931.03
2022-08-05T01:10:33.532Z,99929.88
2022-08-05T01:11:13.522Z,99930.69
2022-08-05T01:11:51.736Z,99941.63
2022-08-05T01:12:25.440Z,99933.41
2022-08-05T01:13:13.365Z,99943.56
2022-08-05T01:14:04.487Z,99936.84
2022-08-05T01:14:48.889Z,99934.44
2022-08-05T01:15:36.517Z,99934.44
2022-08-05T01:16:21.058Z,99931.69
2022-08-05T01:17:05.269Z,99930.94
2022-08-05T01:17:46.402Z,99933.31
2022-08-05T01:18:31.966Z,99936.41
2022-08-05T01:19:15.944Z,99930.94
2022-08-05T01:20:01.594Z,99932.06
2022-08-05T01:20:50.217Z,99935.13
2022-08-05T01:21:41.970Z,99933.88
2022-08-05T01:22:47.185Z,99930.22
2022-08-05T01:23:35.603Z,99928.94
2022-08-05T01:24:24.302Z,99934.41
2022-08-05T01:25:40.407Z,99938.16
2022-08-05T01:26:38.219Z,99938.47
2022-08-05T01:27:25.799Z,99933.47
2022-08-05T01:28:27.312Z,99935.41
2022-08-05T01:29:05.369Z,99929.25
2022-08-05T01:29:44.407Z,99927.81
2022-08-05T01:30:20.176Z,99931.34
2022-08-05T01:31:11.518Z,99933.41
2022-08-05T01:31:51.059Z,99929.53
2022-08-05T01:32:27.819Z,99929.97
2022-08-05T01:33:02.718Z,99913.56
2022-08-05T01:33:42.386Z,99926.09
2022-08-05T01:34:26.997Z,99917.91
2022-08-05T01:35:03.108Z,99921.09
2022-08-05T01:35:50.864Z,99926.91
2022-08-05T01:36:29.657Z,99919.03
2022-08-05T01:37:10.957Z,99915.16
2022-08-05T01:37:59.456Z,99913.13
2022-08-05T01:38:34.897Z,99914.72
2022-08-05T01:39:10.567Z,99913.56
2022-08-05T01:39:47.730Z,99916.78
2022-08-05T01:40:27.961Z,99921.09
2022-08-05T01:41:05.156Z,99917.91
2022-08-05T01:41:44.480Z,99915.97
2022-08-05T01:42:22.215Z,99921.75
2022-08-05T01:42:56.996Z,99920.63
2022-08-05T01:43:34.099Z,99927.72
2022-08-05T01:44:11.291Z,99924.19
2022-08-05T01:44:45.666Z,99924.19
2022-08-05T01:45:27.966Z,99929.31
2022-08-05T01:46:16.532Z,99926.91
2022-08-05T01:47:05.100Z,99920.19
2022-08-05T01:47:43.458Z,99916.78
2022-08-05T01:48:18.418Z,99922.72
2022-08-05T01:48:52.012Z,99920.75
2022-08-05T01:50:01.862Z,99916.09
2022-08-05T01:50:28.734Z,99915.16
2022-08-05T01:51:12.484Z,99923.38
2022-08-05T01:51:51.015Z,99923.38
2022-08-05T01:52:28.629Z,99919.50
2022-08-05T01:53:05.069Z,99926.91
2022-08-05T01:53:57.606Z,99925.78
2022-08-05T01:54:46.062Z,99929.97
2022-08-05T01:55:22.737Z,99927.59
2022-08-05T01:56:04.507Z,99933.50
2022-08-05T01:58:11.776Z,99931.13
2022-08-05T01:58:12.869Z,99928.59
2022-08-05T01:58:40.782Z,99930.06
2022-08-05T01:59:26.447Z,99930.06
2022-08-05T02:00:02.148Z,99934.06
2022-08-05T02:00:39.830Z,99934.88
2022-08-05T02:01:23.300Z,99939.19
2022-08-05T02:02:00.258Z,99939.19
2022-08-05T02:02:37.321Z,99939.66
2022-08-05T02:03:31.516Z,99938.41
2022-08-05T02:04:05.832Z,99932.94
2022-08-05T02:04:40.778Z,99931.47
2022-08-05T02:05:17.829Z,99942.06
2022-08-05T02:05:57.917Z,99929.53
2022-08-05T02:06:38.420Z,99935.44
2022-08-05T02:07:21.848Z,99938.19
2022-08-05T02:08:00.167Z,99936.59
2022-08-05T02:08:40.506Z,99933.06
2022-08-05T02:09:29.632Z,99936.13
2022-08-05T02:10:03.466Z,99937.84
2022-08-05T02:10:40.890Z,99940.25
2022-08-05T02:11:23.848Z,99940.25
2022-08-05T02:12:03.497Z,99939.47
2022-08-05T02:12:43.326Z,99941.41
2022-08-05T02:13:21.938Z,99927.25
2022-08-05T02:14:03.340Z,99934.31
2022-08-05T02:14:47.105Z,99937.84
2022-08-05T02:15:25.857Z,99938.66
2022-08-05T02:16:16.432Z,99941.19
2022-08-05T02:16:54.809Z,99934.00
2022-08-05T02:18:31.343Z,99935.59
2022-08-05T02:18:35.177Z,99938.53
2022-08-05T02:19:14.549Z,99934.69
2022-08-05T02:19:51.753Z,99929.97
2022-08-05T02:20:29.572Z,99932.38
2022-08-05T02:21:15.169Z,99939.78
2022-08-05T02:22:01.352Z,99930.66
2022-08-05T02:22:39.339Z,99930.97
2022-08-05T02:23:14.967Z,99937.03
2022-08-05T02:23:53.037Z,99929.25
2022-08-05T02:24:32.116Z,99937.94
2022-08-05T02:25:12.490Z,99936.34
2022-08-05T02:25:50.189Z,99936.09
2022-08-05T02:26:26.616Z,99942.81
2022-08-05T02:27:10.203Z,99947.63
2022-08-05T02:27:58.364Z,99945.69
2022-08-05T02:28:38.422Z,99942.94
2022-08-05T02:29:58.182Z,99946.16
2022-08-05T02:30:17.814Z,99942.16
2022-08-05T02:30:59.487Z,99945.47
2022-08-05T02:31:35.821Z,99947.56
2022-08-05T02:32:19.672Z,99946.06
2022-08-05T02:32:58.163Z,99943.31
2022-08-05T02:33:36.100Z,99948.13
2022-08-05T02:34:12.042Z,99941.88
2022-08-05T02:34:45.673Z,99943.44
2022-08-05T02:35:33.293Z,99943.81
2022-08-05T02:36:15.580Z,99942.19
2022-08-05T02:36:54.451Z,99950.09
2022-08-05T02:37:28.266Z,99950.09
2022-08-05T02:38:05.500Z,99948.13
2022-08-05T02:38:53.460Z,99944.59
2022-08-05T02:39:29.807Z,99949.28
2022-08-05T02:40:03.401Z,99946.19
2022-08-05T02:40:41.457Z,99945.06
2022-08-05T02:41:17.262Z,99940.72
2022-08-05T02:42:00.572Z,99950.53
2022-08-05T02:42:37.883Z,99947.00
2022-08-05T02:43:13.087Z,99945.84
2022-08-05T02:44:02.429Z,99944.72
2022-08-05T02:44:47.120Z,99941.50
2022-08-05T02:45:19.594Z,99947.56
2022-08-05T02:45:56.923Z,99939.78
2022-08-05T02:46:36.349Z,99944.59
2022-08-05T02:47:58.663Z,99944.59
2022-08-05T02:48:29.171Z,99943.44
2022-08-05T02:49:02.872Z,99947.78
2022-08-05T02:49:40.381Z,99949.84
2022-08-05T02:50:17.384Z,99941.63
2022-08-05T02:50:51.938Z,99952.59
2022-08-05T02:51:28.506Z,99945.19
2022-08-05T02:52:30.095Z,99951.66
2022-08-05T02:53:04.029Z,99950.09
2022-08-05T02:53:39.721Z,99948.59
2022-08-05T02:54:35.007Z,99951.34
2022-08-05T02:55:10.832Z,99951.22
2022-08-05T02:55:54.688Z,99950.41
2022-08-05T02:56:36.042Z,99948.00
2022-08-05T02:58:10.885Z,99944.94
2022-08-05T02:58:11.605Z,99937.72
2022-08-05T02:58:51.599Z,99940.91
2022-08-05T02:59:27.726Z,99947.19
2022-08-05T03:00:05.404Z,99940.59
2022-08-05T03:00:39.231Z,99937.41
2022-08-05T03:01:15.045Z,99942.53
2022-08-05T03:01:58.199Z,99940.91
2022-08-05T03:02:35.489Z,99944.47
2022-08-05T03:03:10.261Z,99939.78
2022-08-05T03:04:03.217Z,99940.59
2022-08-05T03:04:39.443Z,99944.81
2022-08-05T03:05:15.139Z,99942.53
2022-08-05T03:06:54.659Z,99937.41
2022-08-05T03:06:56.885Z,99932.38
2022-08-05T03:08:00.506Z,99950.28
2022-08-05T03:08:29.911Z,99941.59
2022-08-05T03:09:02.735Z,99954.16
2022-08-05T03:09:38.241Z,99943.66
2022-08-05T03:10:13.823Z,99950.72
2022-08-05T03:11:02.332Z,99946.06
2022-08-05T03:11:54.487Z,99944.81
2022-08-05T03:12:30.250Z,99948.22
2022-08-05T03:13:51.499Z,99945.63
2022-08-05T03:14:28.694Z,99953.69
2022-08-05T03:15:06.844Z,99956.09
2022-08-05T03:15:44.942Z,99943.53
2022-08-05T03:16:17.244Z,99948.69
2022-08-05T03:16:53.380Z,99942.06
2022-08-05T03:17:28.393Z,99944.81
2022-08-05T03:18:00.793Z,99945.63
2022-08-05T03:18:33.334Z,99942.53
2022-08-05T03:19:17.179Z,99944.47
2022-08-05T03:20:00.935Z,99944.66
2022-08-05T03:20:33.281Z,99940.81
2022-08-05T03:21:09.079Z,99945.63
2022-08-05T03:21:48.636Z,99944.00
2022-08-05T03:22:32.523Z,99947.56
2022-08-05T03:23:09.488Z,99945.13
2022-08-05T03:23:45.653Z,99942.06
2022-08-05T03:24:29.529Z,99941.72
2022-08-05T03:25:34.054Z,99944.34
2022-08-05T03:26:04.288Z,99950.50
2022-08-05T03:26:53.059Z,99937.94
2022-08-05T03:27:29.795Z,99936.47
2022-08-05T03:28:14.504Z,99941.47
2022-08-05T03:28:51.291Z,99933.28
2022-08-05T03:29:24.008Z,99935.69
2022-08-05T03:30:08.493Z,99942.41
2022-08-05T03:30:44.856Z,99945.47
2022-08-05T03:31:55.608Z,99940.81
2022-08-05T03:32:15.694Z,99940.69
2022-08-05T03:32:48.022Z,99941.94
2022-08-05T03:33:20.939Z,99948.69
2022-08-05T03:33:56.916Z,99950.28
2022-08-05T03:34:29.312Z,99945.63
2022-08-05T03:35:04.480Z,99950.72
2022-08-05T03:35:41.840Z,99949.13
2022-08-05T03:36:14.276Z,99947.56
2022-08-05T03:36:49.022Z,99947.19
2022-08-05T03:37:25.417Z,99948.69
2022-08-05T03:37:58.440Z,99948.69
2022-08-05T03:38:37.533Z,99947.56
2022-08-05T03:39:19.913Z,99947.88
2022-08-05T03:40:05.067Z,99946.94
2022-08-05T03:40:40.475Z,99948.56
2022-08-05T03:41:12.804Z,99956.41
2022-08-05T03:41:47.697Z,99945.13
2022-08-05T03:42:27.087Z,99950.94
2022-08-05T03:43:15.702Z,99951.75
2022-08-05T03:44:08.853Z,99954.34
2022-08-05T03:44:43.801Z,99953.88
2022-08-05T03:45:21.971Z,99953.69
2022-08-05T03:46:00.364Z,99952.53
2022-08-05T03:46:32.744Z,99950.63
2022-08-05T03:47:05.375Z,99951.88
2022-08-05T03:47:41.995Z,99944.81
2022-08-05T03:48:14.290Z,99950.28
2022-08-05T03:48:56.689Z,99952.53
2022-08-05T03:49:30.962Z,99949.81
2022-08-05T03:50:21.256Z,99951.63
2022-08-05T03:52:38.731Z,99950.94
2022-08-05T03:52:48.779Z,99949.22
2022-08-05T03:55:07.001Z,99944.31
2022-08-05T03:55:51.689Z,99947.16
2022-08-05T03:55:52.078Z,99945.09
2022-08-05T03:56:10.299Z,99948.16
2022-08-05T03:56:50.312Z,99947.56
2022-08-05T03:57:41.844Z,99945.63
2022-08-05T03:58:20.785Z,99946.31
2022-08-05T03:59:06.627Z,99942.78
2022-08-05T03:59:54.466Z,99951.47
2022-08-05T04:00:30.025Z,99947.13
2022-08-05T04:01:08.062Z,99941.28
2022-08-05T04:01:51.030Z,99945.19
2022-08-05T04:02:34.810Z,99949.50
2022-08-05T04:03:15.053Z,99947.91
2022-08-05T04:04:09.040Z,99943.25
2022-08-05T04:04:44.895Z,99944.19
2022-08-05T04:05:18.490Z,99946.56
2022-08-05T04:05:53.745Z,99944.31
2022-08-05T04:06:26.819Z,99941.56
2022-08-05T04:07:01.941Z,99945.56
2022-08-05T04:07:58.161Z,99952.63
2022-08-05T04:08:36.269Z,99948.16
2022-08-05T04:09:12.570Z,99948.28
2022-08-05T04:09:53.676Z,99946.84
2022-08-05T04:10:28.170Z,99943.75
2022-08-05T04:11:07.534Z,99949.38
2022-08-05T04:11:50.906Z,99957.22
2022-08-05T04:12:27.690Z,99952.22
2022-08-05T04:13:03.431Z,99958.63
2022-08-05T04:13:50.872Z,99963.75
2022-08-05T04:14:30.663Z,99953.94
2022-08-05T04:15:03.852Z,99949.28
2022-08-05T04:15:36.771Z,99948.91
2022-08-05T04:16:16.010Z,99956.47
2022-08-05T04:16:57.773Z,99965.00
2022-08-05T04:17:55.658Z,99956.47
2022-08-05T04:18:27.134Z,99956.00
2022-08-05T04:19:00.070Z,99961.16
2022-08-05T04:19:41.602Z,99959.66
2022-08-05T04:20:24.881Z,99962.41
2022-08-05T04:20:58.081Z,99964.31
2022-08-05T04:22:08.392Z,99962.88
2022-08-05T04:22:25.288Z,99964.31
2022-08-05T04:22:58.773Z,99962.88
2022-08-05T04:23:57.165Z,99953.50
2022-08-05T04:24:27.623Z,99957.25
2022-08-05T04:25:00.021Z,99960.47
2022-08-05T04:25:56.759Z,99956.59
2022-08-05T04:26:32.275Z,99961.59
2022-08-05T04:27:05.181Z,99952.59
2022-08-05T04:27:41.734Z,99955.78
2022-08-05T04:28:17.228Z,99946.44
2022-08-05T04:28:50.768Z,99946.91
2022-08-05T04:29:26.464Z,99952.84
2022-08-05T04:29:59.634Z,99951.25
2022-08-05T04:30:36.160Z,99961.06
2022-08-05T04:31:11.092Z,99954.44
2022-08-05T04:31:48.359Z,99957.19
2022-08-05T04:32:31.161Z,99956.72
2022-08-05T04:33:08.116Z,99954.66
2022-08-05T04:34:17.302Z,99960.94
2022-08-05T04:34:38.512Z,99959.66
2022-08-05T04:35:19.570Z,99959.34
2022-08-05T04:36:16.417Z,99962.88
2022-08-05T04:36:50.228Z,99959.66
2022-08-05T04:38:01.373Z,99966.41
2022-08-05T04:38:17.698Z,99964.00
2022-08-05T04:38:52.853Z,99958.19
2022-08-05T04:39:25.161Z,99962.19
2022-08-05T04:39:59.950Z,99962.66
2022-08-05T04:40:36.579Z,99956.50
2022-08-05T04:41:09.492Z,99956.50
2022-08-05T04:41:42.386Z,99962.44
2022-08-05T04:42:19.141Z,99962.09
2022-08-05T04:42:57.665Z,99955.81
2022-08-05T04:43:32.500Z,99957.44
2022-08-05T04:44:09.303Z,99960.97
2022-08-05T04:44:42.255Z,99960.63
2022-08-05T04:45:22.942Z,99959.16
2022-08-05T04:46:05.006Z,99963.38
2022-08-05T04:46:37.972Z,99953.19
2022-08-05T04:47:20.419Z,99942.94
2022-08-05T04:47:52.849Z,99958.34
2022-08-05T04:48:27.862Z,99954.16
2022-08-05T04:49:00.485Z,99970.47
2022-08-05T04:49:38.782Z,99959.06
2022-08-05T04:50:37.289Z,99957.13
2022-08-05T04:51:12.766Z,99958.84
2022-08-05T04:51:45.794Z,99963.28
2022-08-05T04:52:19.537Z,99957.63
2022-08-05T04:52:54.220Z,99951.47
2022-08-05T04:53:26.351Z,99951.94
2022-08-05T04:54:05.851Z,99949.31
2022-08-05T04:54:40.616Z,99949.75
2022-08-05T04:55:15.058Z,99952.63
2022-08-05T04:56:11.903Z,99946.00
2022-08-05T04:56:42.487Z,99940.50
2022-08-05T04:57:15.970Z,99945.78
2022-08-05T04:57:51.528Z,99947.84
2022-08-05T04:58:28.621Z,99938.94
2022-08-05T04:59:22.160Z,99942.25
2022-08-05T04:59:54.430Z,99937.09
2022-08-05T05:00:29.582Z,99939.94
2022-08-05T05:01:02.396Z,99940.75
2022-08-05T05:02:08.231Z,99941.56
2022-08-05T05:02:36.679Z,99940.66
2022-08-05T05:03:12.386Z,99939.03
2022-08-05T05:03:50.911Z,99943.72
2022-08-05T05:04:25.702Z,99948.06
2022-08-05T05:05:03.105Z,99943.38
2022-08-05T05:06:39.381Z,99955.94
2022-08-05T05:06:40.671Z,99951.13
2022-08-05T05:07:29.215Z,99951.94
2022-08-05T05:08:04.113Z,99950.34
2022-08-05T05:08:37.258Z,99950.00
2022-08-05T05:09:18.478Z,99943.38
2022-08-05T05:09:52.177Z,99946.13
2022-08-05T05:10:26.199Z,99959.13
2022-08-05T05:11:04.425Z,99956.06
2022-08-05T05:11:42.162Z,99957.66
2022-08-05T05:12:29.312Z,99956.88
2022-08-05T05:13:04.141Z,99950.69
2022-08-05T05:13:43.183Z,99950.78
2022-08-05T05:14:18.503Z,99952.72
2022-08-05T05:15:05.290Z,99952.72
2022-08-05T05:15:59.141Z,99955.47
2022-08-05T05:16:38.244Z,99948.75
2022-08-05T05:17:14.310Z,99958.22
2022-08-05T05:17:57.179Z,99964.97
2022-08-05T05:18:33.917Z,99962.56
2022-08-05T05:19:23.699Z,99962.56
2022-08-05T05:19:59.992Z,99958.56
2022-08-05T05:20:32.913Z,99953.53
2022-08-05T05:21:07.920Z,99967.72
2022-08-05T05:21:41.889Z,99962.22
2022-08-05T05:22:24.669Z,99969.31
2022-08-05T05:23:08.423Z,99963.03
2022-08-05T05:24:02.981Z,99969.31
2022-08-05T05:24:57.319Z,99967.72
2022-08-05T05:25:40.489Z,99961.97
2022-08-05T05:26:15.912Z,99966.00
2022-08-05T05:26:48.225Z,99966.56
2022-08-05T05:27:24.448Z,99962.34
2022-08-05T05:28:17.003Z,99962.34
2022-08-05T05:28:49.251Z,99958.91
2022-08-05T05:29:21.434Z,99959.03
2022-08-05T05:30:04.049Z,99958.34
2022-08-05T05:30:37.519Z,99961.88
2022-08-05T05:31:12.299Z,99963.44
2022-08-05T05:31:46.248Z,99959.56
2022-08-05T05:32:18.810Z,99965.53
2022-08-05T05:33:00.815Z,99970.63
2022-08-05T05:33:58.774Z,99966.19
2022-08-05T05:34:30.539Z,99969.63
2022-08-05T05:35:03.201Z,99977.53
2022-08-05T05:35:37.877Z,99969.63
2022-08-05T05:36:14.705Z,99970.75
2022-08-05T05:36:48.210Z,99971.47
2022-08-05T05:37:23.646Z,99972.59
2022-08-05T05:38:13.451Z,99977.16
2022-08-05T05:38:46.235Z,99968.94
2022-08-05T05:39:19.405Z,99967.34
2022-08-05T05:39:54.498Z,99970.88
2022-08-05T05:40:27.537Z,99976.38
2022-08-05T05:41:02.898Z,99970.09
2022-08-05T05:41:40.416Z,99970.09
2022-08-05T05:42:16.476Z,99977.88
2022-08-05T05:42:53.469Z,99974.66
2022-08-05T05:43:56.488Z,99973.84
2022-08-05T05:44:36.812Z,99964.72
2022-08-05T05:45:14.243Z,99969.06
2022-08-05T05:45:49.051Z,99970.78
2022-08-05T05:46:21.769Z,99974.31
2022-08-05T05:46:54.105Z,99974.78
2022-08-05T05:48:06.035Z,99969.75
2022-08-05T05:48:27.368Z,99982.53
2022-08-05T05:49:06.395Z,99971.25
2022-08-05T05:49:45.197Z,99978.31
2022-08-05T05:50:31.445Z,99979.81
2022-08-05T05:51:15.669Z,99975.13
2022-08-05T05:51:51.196Z,99975.47
2022-08-05T05:52:29.985Z,99974.78
2022-08-05T05:53:21.226Z,99979.47
2022-08-05T05:53:58.604Z,99979.81
2022-08-05T05:54:49.763Z,99976.72
2022-08-05T05:55:51.655Z,99984.47
2022-08-05T05:56:25.858Z,99978.19
2022-08-05T05:57:13.859Z,99977.88
2022-08-05T05:57:52.835Z,99981.03
2022-08-05T05:58:30.286Z,99978.78
2022-08-05T05:59:06.948Z,99980.00
2022-08-05T05:59:40.191Z,99978.53
2022-08-05T06:00:18.505Z,99980.59
2022-08-05T06:00:50.981Z,99979.47
2022-08-05T06:01:23.578Z,99983.81
2022-08-05T06:01:58.326Z,99981.97
2022-08-05T06:02:32.859Z,99979.34
2022-08-05T06:03:40.063Z,99974.75
2022-08-05T06:04:07.769Z,99978.78
2022-08-05T06:04:40.068Z,99981.66
2022-08-05T06:05:16.628Z,99982.56
2022-08-05T06:05:54.256Z,99976.72
2022-08-05T06:06:31.284Z,99975.22
2022-08-05T06:07:08.371Z,99971.34
2022-08-05T06:07:43.346Z,99975.34
2022-08-05T06:08:36.153Z,99978.88
2022-08-05T06:09:16.949Z,99982.84
2022-08-05T06:10:04.356Z,99980.13
2022-08-05T06:10:52.493Z,99981.72
2022-08-05T06:11:29.048Z,99979.78
2022-08-05T06:12:02.698Z,99978.31
2022-08-05T06:12:36.101Z,99983.09
2022-08-05T06:13:17.014Z,99977.28
2022-08-05T06:13:50.458Z,99978.50
2022-08-05T06:14:28.037Z,99980.91
2022-08-05T06:15:04.286Z,99983.28
2022-08-05T06:16:30.124Z,99974.25
2022-08-05T06:16:36.804Z,99975.75
2022-08-05T06:17:21.990Z,99982.16
2022-08-05T06:17:57.551Z,99973.59
2022-08-05T06:18:31.009Z,99971.28
2022-08-05T06:19:07.206Z,99973.78
2022-08-05T06:19:43.088Z,99966.34
2022-08-05T06:20:28.596Z,99971.25
2022-08-05T06:21:00.873Z,99965.97
2022-08-05T06:21:37.458Z,99968.47
2022-08-05T06:22:10.647Z,99967.41
2022-08-05T06:22:42.955Z,99972.66
2022-08-05T06:23:17.785Z,99962.59
2022-08-05T06:23:49.952Z,99972.41
2022-08-05T06:24:25.746Z,99976.09
2022-08-05T06:25:25.028Z,99971.03
2022-08-05T06:26:12.975Z,99969.44
2022-08-05T06:26:52.128Z,99966.34
2022-08-05T06:28:11.370Z,99972.63
2022-08-05T06:28:21.406Z,99967.13
2022-08-05T06:28:54.120Z,99969.19
2022-08-05T06:29:49.520Z,99971.91
2022-08-05T06:30:21.499Z,99972.63
2022-08-05T06:30:53.935Z,99967.94
2022-08-05T06:31:30.453Z,99972.63
2022-08-05T06:32:05.044Z,99963.94
2022-08-05T06:32:56.589Z,99959.03
2022-08-05T06:33:33.311Z,99965.66
2022-08-05T06:34:26.577Z,99959.28
2022-08-05T06:35:00.072Z,99965.56
2022-08-05T06:36:07.297Z,99969.91
2022-08-05T06:36:53.482Z,99971.97
2022-08-05T06:37:56.182Z,99968.75
2022-08-05T06:38:35.899Z,99961.78
2022-08-05T06:39:11.708Z,99965.31
2022-08-05T06:39:45.214Z,99967.38
2022-08-05T06:40:18.203Z,99964.75
2022-08-05T06:40:56.211Z,99973.09
2022-08-05T06:41:28.922Z,99971.25
2022-08-05T06:42:07.268Z,99967.78
2022-08-05T06:42:42.421Z,99965.94
2022-08-05T06:43:57.925Z,99964.41
2022-08-05T06:44:07.280Z,99963.28
2022-08-05T06:44:42.201Z,99971.16
2022-08-05T06:45:20.802Z,99965.34
2022-08-05T06:46:06.575Z,99961.41
2022-08-05T06:46:39.703Z,99973.19
2022-08-05T06:47:30.021Z,99978.69
2022-08-05T06:48:37.045Z,99977.81
2022-08-05T06:49:04.632Z,99969.91
2022-08-05T06:49:59.892Z,99975.41
2022-08-05T06:50:36.974Z,99974.97
2022-08-05T06:51:09.668Z,99976.56
2022-08-05T06:51:42.409Z,99984.44
2022-08-05T06:52:37.758Z,99981.34
2022-08-05T06:53:19.597Z,99983.28
2022-08-05T06:54:03.420Z,99976.19
2022-08-05T06:54:35.962Z,99987.31
2022-08-05T06:55:09.160Z,99977.56
2022-08-05T06:55:44.694Z,99981.09
2022-08-05T06:56:26.481Z,99982.69
2022-08-05T06:57:56.579Z,99985.44
2022-08-05T06:58:03.375Z,99993.22
2022-08-05T06:58:48.621Z,99995.88
2022-08-05T06:59:23.414Z,99992.44
2022-08-05T06:59:58.290Z,99992.44
2022-08-05T07:00:31.486Z,99995.97
2022-08-05T07:01:07.701Z,99992.44
2022-08-05T07:01:40.705Z,99995.16
2022-08-05T07:02:14.828Z,99984.19
2022-08-05T07:02:53.445Z,99993.22
2022-08-05T07:03:28.124Z,99996.31
2022-08-05T07:04:07.575Z,99992.00
2022-08-05T07:04:42.311Z,99995.09
2022-08-05T07:05:18.633Z,99992.69
2022-08-05T07:05:54.384Z,99987.91
2022-08-05T07:06:29.527Z,99988.25
2022-08-05T07:07:01.729Z,99993.38
2022-08-05T07:07:43.919Z,99999.34
2022-08-05T07:08:19.500Z,99994.19
2022-08-05T07:08:54.983Z,99994.63
2022-08-05T07:09:32.346Z,99998.97
2022-08-05T07:10:14.817Z,99992.69
2022-08-05T07:10:53.279Z,99993.84
2022-08-05T07:11:28.069Z,99993.06
2022-08-05T07:12:02.953Z,99994.75
2022-08-05T07:12:51.135Z,99992.34
2022-08-05T07:13:56.806Z,99993.47
2022-08-05T07:14:46.038Z,99992.25
2022-08-05T07:15:34.399Z,99985.94
2022-08-05T07:17:58.777Z,99990.88
2022-08-05T07:18:00.755Z,99987.00
2022-08-05T07:18:29.061Z,99993.63
2022-08-05T07:19:02.490Z,99995.66
2022-08-05T07:20:23.010Z,99995.34
2022-08-05T07:20:37.004Z,99996.47
2022-08-05T07:21:13.408Z,99998.06
2022-08-05T07:21:59.855Z,99999.69
2022-08-05T07:22:36.016Z,99999.78
2022-08-05T07:23:08.192Z,99998.63
2022-08-05T07:23:49.857Z,99997.50
2022-08-05T07:24:28.768Z,99999.44
2022-08-05T07:25:22.064Z,99999.88
2022-08-05T07:25:57.224Z,99998.63
2022-08-05T07:26:29.525Z,100006.88
2022-08-05T07:27:03.569Z,100002.19
2022-08-05T07:27:58.740Z,100000.56
2022-08-05T07:28:34.922Z,100001.72
2022-08-05T07:29:10.209Z,100002.19
2022-08-05T07:30:25.542Z,99995.16
2022-08-05T07:30:38.693Z,100002.19
2022-08-05T07:31:14.323Z,99997.56
2022-08-05T07:31:54.558Z,99995.25
2022-08-05T07:32:30.140Z,99996.06
2022-08-05T07:33:08.854Z,99994.91
2022-08-05T07:33:44.516Z,99993.78
2022-08-05T07:34:16.878Z,99996.19
2022-08-05T07:34:57.927Z,99991.84
2022-08-05T07:36:01.877Z,99995.38
2022-08-05T07:36:28.546Z,99996.44
2022-08-05T07:37:04.446Z,99998.81
2022-08-05T07:37:37.517Z,99994.91
2022-08-05T07:38:12.271Z,100000.41
2022-08-05T07:39:00.255Z,99998.81
2022-08-05T07:40:04.339Z,100005.91
2022-08-05T07:40:32.282Z,99997.66
2022-08-05T07:42:06.730Z,99992.19
2022-08-05T07:42:08.167Z,99995.63
2022-08-05T07:42:44.046Z,99996.88
2022-08-05T07:43:20.902Z,99996.94
2022-08-05T07:43:56.208Z,99991.59
2022-08-05T07:44:31.543Z,99992.34
2022-08-05T07:45:09.318Z,99993.63
2022-08-05T07:45:57.040Z,99997.16
2022-08-05T07:46:31.935Z,99989.34
2022-08-05T07:47:10.174Z,99991.75
2022-08-05T07:47:47.293Z,99996.53
2022-08-05T07:49:01.398Z,99997.78
2022-08-05T07:49:18.210Z,100008.41
2022-08-05T07:49:54.320Z,100003.38
2022-08-05T07:50:32.369Z,100004.97
2022-08-05T07:51:23.450Z,100008.53
2022-08-05T07:52:03.419Z,100009.22
2022-08-05T07:52:41.649Z,100008.16
2022-08-05T07:53:16.606Z,100006.22
2022-08-05T07:53:50.389Z,100011.03
2022-08-05T07:54:31.446Z,100012.34
2022-08-05T07:55:44.044Z,100006.94